Time;durP1;ratioP1;P1;durP2;ratioP2;P2;SDS_P1;SDS_P2;PMS_P1;PMS_P2;Temp;Humidity;BMP_temperature;BMP_pressure;BME280_temperature;BME280_humidity;BME280_pressure;Samples;Min_cycle;Max_cycle;Signal;HPM_P1;HPM_P2
2023/05/23 00:00:57;;;;;;;6.80;6.13;;;19.90;73.60;;;;;;4994506;28;20259;-66
2023/05/23 00:03:24;;;;;;;6.55;5.97;;;19.90;73.70;;;;;;4993212;28;20211;-66
2023/05/23 00:05:50;;;;;;;6.30;5.78;;;19.90;73.70;;;;;;4993835;28;20216;-66
2023/05/23 00:08:16;;;;;;;6.22;5.63;;;19.90;74.40;;;;;;4996236;28;20194;-66
2023/05/23 00:10:44;;;;;;;6.80;6.20;;;19.90;73.70;;;;;;4980304;28;20286;-66
2023/05/23 00:13:13;;;;;;;6.30;5.80;;;19.90;73.60;;;;;;4999412;28;20191;-66
2023/05/23 00:15:40;;;;;;;5.88;5.43;;;19.90;73.60;;;;;;5000434;28;20244;-66
2023/05/23 00:18:10;;;;;;;6.82;6.05;;;19.90;73.60;;;;;;4995858;28;20187;-65
2023/05/23 00:20:39;;;;;;;6.78;6.28;;;19.90;73.60;;;;;;5012468;28;20322;-65
2023/05/23 00:23:09;;;;;;;6.15;5.65;;;19.90;73.60;;;;;;5012447;28;20184;-66
2023/05/23 00:25:36;;;;;;;6.80;6.20;;;19.80;73.50;;;;;;5012418;28;20667;-67
2023/05/23 00:28:04;;;;;;;6.93;6.40;;;19.90;73.60;;;;;;4992809;28;20223;-66
2023/05/23 00:30:31;;;;;;;6.70;6.13;;;19.90;73.50;;;;;;4992762;28;20216;-66
2023/05/23 00:32:59;;;;;;;7.55;6.30;;;19.90;73.50;;;;;;5002036;28;20203;-66
2023/05/23 00:35:25;;;;;;;6.50;5.90;;;19.90;73.50;;;;;;4996061;28;20188;-66
2023/05/23 00:37:51;;;;;;;6.25;5.75;;;19.90;73.50;;;;;;4995712;28;20185;-66
2023/05/23 00:40:18;;;;;;;6.50;5.90;;;19.90;73.50;;;;;;4995844;28;20648;-66
2023/05/23 00:42:44;;;;;;;6.72;6.13;;;19.90;73.50;;;;;;4995707;28;20180;-66
2023/05/23 00:45:13;;;;;;;6.82;6.22;;;19.90;73.50;;;;;;5006632;28;20187;-66
2023/05/23 00:47:40;;;;;;;7.00;6.40;;;19.90;73.60;;;;;;5015057;28;20211;-66
2023/05/23 00:50:11;;;;;;;6.95;6.38;;;19.80;73.50;;;;;;5015246;28;20215;-66
2023/05/23 00:52:38;;;;;;;6.78;6.07;;;19.90;73.60;;;;;;5015647;28;20237;-66
2023/05/23 00:55:04;;;;;;;6.97;6.38;;;19.80;73.50;;;;;;5015392;28;20690;-66
2023/05/23 00:57:33;;;;;;;6.45;5.95;;;19.80;73.50;;;;;;5014894;28;20203;-66
2023/05/23 01:00:03;;;;;;;6.35;5.85;;;19.90;73.70;;;;;;5015179;28;20195;-66
2023/05/23 01:02:32;;;;;;;7.47;6.78;;;19.90;73.70;;;;;;5014941;28;20191;-66
2023/05/23 01:04:58;;;;;;;6.97;6.38;;;19.90;73.70;;;;;;5015009;28;20187;-66
2023/05/23 01:07:24;;;;;;;7.05;6.35;;;19.90;73.60;;;;;;5014829;28;20298;-66
2023/05/23 01:09:50;;;;;;;6.93;6.32;;;19.90;73.70;;;;;;5013916;28;20290;-66
2023/05/23 01:12:48;;;;;;;7.20;6.53;;;19.90;73.80;;;;;;5014927;28;20658;-66
2023/05/23 01:15:22;;;;;;;6.40;5.80;;;19.80;73.70;;;;;;5010703;28;20192;-66
2023/05/23 01:18:11;;;;;;;6.63;6.13;;;19.80;73.70;;;;;;4994922;28;20211;-66
2023/05/23 01:20:45;;;;;;;6.88;6.28;;;19.80;73.70;;;;;;4995262;28;20191;-66
2023/05/23 01:23:40;;;;;;;6.90;6.30;;;19.80;73.70;;;;;;4995276;28;20577;-66
2023/05/23 01:26:26;;;;;;;7.63;6.93;;;19.80;73.80;;;;;;4994895;28;20203;-66
2023/05/23 01:29:23;;;;;;;7.03;6.38;;;19.80;73.90;;;;;;4994786;28;20192;-65
2023/05/23 01:31:54;;;;;;;6.82;6.13;;;19.80;73.90;;;;;;4995021;28;20223;-66
2023/05/23 01:34:21;;;;;;;7.07;6.47;;;19.80;73.90;;;;;;4975805;28;20188;-66
2023/05/23 01:36:52;;;;;;;7.25;6.65;;;19.80;74.00;;;;;;4991338;28;20207;-66
2023/05/23 01:39:19;;;;;;;7.75;7.05;;;19.80;74.00;;;;;;5000019;28;20189;-66
2023/05/23 01:41:45;;;;;;;7.72;7.03;;;19.90;74.00;;;;;;4999116;28;20254;-66
2023/05/23 01:44:11;;;;;;;7.25;6.65;;;19.80;74.00;;;;;;5011345;28;20191;-66
2023/05/23 01:46:38;;;;;;;7.47;6.78;;;19.90;74.00;;;;;;5009086;28;20298;-67
2023/05/23 01:49:08;;;;;;;8.52;7.70;;;19.80;74.00;;;;;;4992875;28;20211;-66
2023/05/23 01:51:35;;;;;;;8.13;7.32;;;19.80;74.10;;;;;;5011274;28;20215;-65
2023/05/23 01:54:01;;;;;;;8.25;7.55;;;19.80;74.10;;;;;;4994750;28;20215;-66
2023/05/23 01:56:27;;;;;;;8.50;7.70;;;19.80;74.20;;;;;;4991817;28;20212;-66
2023/05/23 01:58:53;;;;;;;7.97;7.25;;;19.80;74.30;;;;;;4991576;28;20172;-66
2023/05/23 02:01:20;;;;;;;7.88;7.15;;;19.80;74.30;;;;;;4991464;28;20325;-66
2023/05/23 02:03:46;;;;;;;8.38;7.63;;;19.80;74.20;;;;;;4990186;28;20191;-67
2023/05/23 02:06:12;;;;;;;8.18;7.47;;;19.80;74.10;;;;;;4993488;28;20720;-67
2023/05/23 02:08:38;;;;;;;8.13;7.30;;;19.80;74.30;;;;;;4994413;28;20200;-67
2023/05/23 02:11:04;;;;;;;8.25;7.55;;;19.80;74.40;;;;;;4994234;28;20218;-66
2023/05/23 02:13:30;;;;;;;7.93;7.22;;;19.80;74.40;;;;;;4994319;28;20585;-66
2023/05/23 02:15:56;;;;;;;8.60;7.80;;;19.80;74.40;;;;;;5002492;28;20204;-66
2023/05/23 02:18:25;;;;;;;8.48;7.60;;;19.80;74.50;;;;;;4994410;28;20774;-66
2023/05/23 02:20:51;;;;;;;9.48;8.57;;;19.80;74.40;;;;;;4995578;28;20188;-64
2023/05/23 02:23:16;;;;;;;9.18;8.27;;;19.80;74.50;;;;;;4998708;28;20190;-65
2023/05/23 02:25:42;;;;;;;9.25;8.38;;;19.80;74.50;;;;;;4995311;28;20606;-66
2023/05/23 02:28:08;;;;;;;8.30;7.50;;;19.80;74.50;;;;;;4995294;28;20180;-66
2023/05/23 02:30:34;;;;;;;9.38;8.45;;;19.80;74.50;;;;;;4994879;28;20275;-65
2023/05/23 02:33:05;;;;;;;9.35;8.45;;;19.80;74.40;;;;;;4988659;28;20251;-67
2023/05/23 02:35:31;;;;;;;9.32;8.50;;;19.80;74.50;;;;;;5014389;28;20176;-66
2023/05/23 02:37:57;;;;;;;9.63;8.65;;;19.80;74.40;;;;;;5005810;28;20184;-66
2023/05/23 02:40:23;;;;;;;9.57;8.57;;;19.80;74.40;;;;;;4994924;28;20189;-66
2023/05/23 02:42:50;;;;;;;9.60;8.60;;;19.80;74.50;;;;;;5012372;28;20189;-66
2023/05/23 02:45:17;;;;;;;9.55;8.40;;;19.80;74.60;;;;;;5007444;28;20270;-66
2023/05/23 02:47:43;;;;;;;9.45;8.55;;;19.80;74.60;;;;;;5009013;28;20229;-66
2023/05/23 02:50:09;;;;;;;10.10;9.10;;;19.80;74.70;;;;;;4999202;28;20624;-66
2023/05/23 02:52:36;;;;;;;10.23;9.00;;;19.80;74.70;;;;;;4997664;28;20188;-65
2023/05/23 02:55:02;;;;;;;9.80;8.90;;;19.80;74.70;;;;;;4995160;28;20192;-66
2023/05/23 02:57:32;;;;;;;9.90;8.90;;;19.80;74.70;;;;;;5025269;28;20692;-66
2023/05/23 02:59:58;;;;;;;9.77;8.85;;;19.80;74.80;;;;;;5002570;28;20192;-66
2023/05/23 03:02:25;;;;;;;9.63;8.70;;;19.80;74.90;;;;;;5013916;28;20207;-66
2023/05/23 03:04:51;;;;;;;11.10;9.10;;;19.80;75.00;;;;;;5030305;28;20188;-66
2023/05/23 03:07:17;;;;;;;10.43;9.00;;;19.80;74.70;;;;;;4997240;28;20652;-66
2023/05/23 03:09:43;;;;;;;9.75;8.75;;;19.80;74.80;;;;;;5030393;28;20208;-67
2023/05/23 03:12:09;;;;;;;10.18;8.90;;;19.80;74.80;;;;;;5021995;28;20188;-66
2023/05/23 03:14:35;;;;;;;10.30;9.20;;;19.80;74.90;;;;;;4997158;28;20192;-66
2023/05/23 03:17:02;;;;;;;10.23;9.23;;;19.80;74.80;;;;;;4997049;28;20215;-66
2023/05/23 03:19:28;;;;;;;9.82;8.88;;;19.80;74.90;;;;;;4997303;28;20234;-66
2023/05/23 03:21:54;;;;;;;9.43;8.52;;;19.80;74.80;;;;;;5013370;28;20195;-66
2023/05/23 03:24:20;;;;;;;10.35;9.35;;;19.80;74.80;;;;;;5013387;28;20729;-65
2023/05/23 03:26:45;;;;;;;10.50;8.85;;;19.80;74.90;;;;;;5029801;28;20208;-66
2023/05/23 03:29:11;;;;;;;9.60;8.60;;;19.80;74.80;;;;;;5013170;28;20191;-66
2023/05/23 03:31:37;;;;;;;10.07;9.05;;;19.80;74.80;;;;;;5024445;28;20251;-66
2023/05/23 03:34:06;;;;;;;11.68;9.55;;;19.80;74.80;;;;;;5026255;28;20188;-66
2023/05/23 03:36:32;;;;;;;10.63;9.52;;;19.80;74.80;;;;;;5013509;28;20249;-66
2023/05/23 03:38:59;;;;;;;10.55;9.50;;;19.80;74.90;;;;;;4993308;28;20195;-67
2023/05/23 03:41:25;;;;;;;10.10;9.10;;;19.80;74.80;;;;;;4996763;28;20188;-66
2023/05/23 03:43:51;;;;;;;10.07;9.07;;;19.80;74.90;;;;;;5003754;28;20678;-66
2023/05/23 03:46:17;;;;;;;11.00;9.90;;;19.80;74.90;;;;;;5005510;28;20215;-66
2023/05/23 03:48:43;;;;;;;11.57;10.48;;;19.80;75.00;;;;;;5012874;28;20274;-65
2023/05/23 03:51:09;;;;;;;11.13;10.13;;;19.80;75.10;;;;;;4996552;28;20260;-66
2023/05/23 03:53:35;;;;;;;10.25;9.25;;;19.80;75.00;;;;;;4996400;28;20192;-65
2023/05/23 03:56:01;;;;;;;10.95;9.85;;;19.80;75.00;;;;;;4996417;28;20211;-65
2023/05/23 03:58:28;;;;;;;10.55;9.48;;;19.80;75.10;;;;;;5012580;28;20187;-66
2023/05/23 04:00:58;;;;;;;10.88;9.68;;;19.80;75.10;;;;;;4993087;28;20196;-65
2023/05/23 04:03:26;;;;;;;10.93;9.93;;;19.80;75.10;;;;;;4996295;28;20620;-66
2023/05/23 04:05:51;;;;;;;10.27;9.27;;;19.80;75.10;;;;;;5012793;28;20211;-65
2023/05/23 04:08:20;;;;;;;11.63;10.43;;;19.80;75.10;;;;;;5012476;28;20254;-66
2023/05/23 04:10:47;;;;;;;11.02;9.93;;;19.80;75.00;;;;;;4996300;28;20204;-65
2023/05/23 04:13:14;;;;;;;11.63;10.43;;;19.80;75.10;;;;;;4996343;28;20185;-66
2023/05/23 04:15:41;;;;;;;11.05;9.90;;;19.80;75.10;;;;;;5002183;28;20211;-65
2023/05/23 04:18:09;;;;;;;10.90;9.80;;;19.80;75.10;;;;;;4996301;28;20192;-66
2023/05/23 04:20:36;;;;;;;13.32;10.60;;;19.80;75.10;;;;;;5028835;28;20242;-66
2023/05/23 04:23:03;;;;;;;11.43;10.25;;;19.80;75.10;;;;;;5012416;28;20660;-66
2023/05/23 04:25:33;;;;;;;11.75;10.55;;;19.80;75.30;;;;;;4996572;28;20183;-66
2023/05/23 04:28:17;;;;;;;11.43;10.15;;;19.80;75.50;;;;;;4998318;28;20195;-65
2023/05/23 04:30:44;;;;;;;11.32;10.13;;;19.80;75.50;;;;;;4996091;28;20211;-66
2023/05/23 04:33:10;;;;;;;12.23;11.02;;;19.80;75.40;;;;;;4995887;28;20271;-66
2023/05/23 04:35:39;;;;;;;13.48;11.88;;;19.80;75.40;;;;;;4995946;28;20184;-65
2023/05/23 04:38:05;;;;;;;11.95;10.75;;;19.80;75.30;;;;;;4995898;28;20184;-66
2023/05/23 04:40:32;;;;;;;11.57;10.38;;;19.80;75.50;;;;;;4996112;28;20188;-66
2023/05/23 04:43:04;;;;;;;11.73;10.48;;;19.80;75.50;;;;;;4996786;28;20609;-66
2023/05/23 04:45:48;;;;;;;13.13;11.48;;;19.80;75.60;;;;;;5005003;28;20265;-66
2023/05/23 04:48:37;;;;;;;12.07;10.82;;;19.80;75.50;;;;;;5004467;28;20188;-65
2023/05/23 04:51:10;;;;;;;12.35;11.13;;;19.80;75.40;;;;;;4995452;28;20219;-66
2023/05/23 04:53:42;;;;;;;11.77;10.57;;;19.80;75.30;;;;;;4996388;28;20238;-65
2023/05/23 04:56:09;;;;;;;11.95;10.70;;;19.80;75.30;;;;;;4992996;28;20220;-65
2023/05/23 04:58:39;;;;;;;12.30;11.10;;;19.80;75.30;;;;;;4995863;28;20188;-66
2023/05/23 05:01:08;;;;;;;10.80;9.70;;;19.80;75.30;;;;;;5011533;28;20207;-66
2023/05/23 05:03:34;;;;;;;13.02;11.73;;;19.80;75.50;;;;;;5028422;28;20230;-66
2023/05/23 05:06:01;;;;;;;14.52;12.77;;;19.80;75.50;;;;;;5015973;28;20268;-66
2023/05/23 05:08:27;;;;;;;16.70;12.52;;;19.80;75.50;;;;;;5011783;28;20180;-66
2023/05/23 05:10:56;;;;;;;12.35;11.05;;;19.80;75.60;;;;;;4995171;28;20234;-65
2023/05/23 05:13:22;;;;;;;13.07;11.77;;;19.80;75.70;;;;;;4994147;28;20189;-65
2023/05/23 05:15:51;;;;;;;13.20;11.88;;;19.80;75.70;;;;;;5003360;28;20239;-66
2023/05/23 05:18:17;;;;;;;12.57;11.35;;;19.80;75.50;;;;;;5002962;28;20193;-66
2023/05/23 05:20:44;;;;;;;14.10;12.57;;;19.80;75.70;;;;;;5011249;28;20192;-66
2023/05/23 05:23:10;;;;;;;13.80;12.40;;;19.80;75.60;;;;;;4992284;28;20197;-66
2023/05/23 05:25:37;;;;;;;14.68;11.88;;;19.80;75.70;;;;;;5011214;28;20218;-67
2023/05/23 05:28:04;;;;;;;14.48;12.98;;;19.80;75.60;;;;;;4994799;28;20655;-64
2023/05/23 05:30:34;;;;;;;13.27;11.95;;;19.80;75.70;;;;;;5002048;28;20208;-66
2023/05/23 05:33:04;;;;;;;13.45;12.05;;;19.80;75.70;;;;;;4991174;28;20216;-66
2023/05/23 05:35:32;;;;;;;14.18;12.77;;;19.80;75.80;;;;;;4994900;28;20180;-66
2023/05/23 05:37:59;;;;;;;14.07;12.65;;;19.80;75.80;;;;;;5011074;28;20188;-65
2023/05/23 05:40:25;;;;;;;13.35;12.05;;;19.80;75.70;;;;;;4994233;28;20196;-66
2023/05/23 05:42:51;;;;;;;14.23;12.73;;;19.80;75.80;;;;;;4996145;28;20200;-66
2023/05/23 05:45:17;;;;;;;14.38;12.68;;;19.80;75.80;;;;;;5006393;28;20278;-66
2023/05/23 05:47:45;;;;;;;13.88;12.48;;;19.80;75.90;;;;;;4997621;28;20752;-66
2023/05/23 05:50:11;;;;;;;14.80;13.30;;;19.80;75.90;;;;;;4992353;28;20226;-66
2023/05/23 05:52:38;;;;;;;13.65;12.25;;;19.80;75.90;;;;;;4994747;28;20180;-66
2023/05/23 05:55:07;;;;;;;14.00;12.50;;;19.80;76.00;;;;;;5011636;28;20251;-65
2023/05/23 05:57:37;;;;;;;14.23;12.73;;;19.80;75.80;;;;;;5023358;28;20196;-65
2023/05/23 06:00:11;;;;;;;13.98;12.57;;;19.80;75.90;;;;;;4998961;28;20195;-65
2023/05/23 06:02:46;;;;;;;13.57;12.18;;;19.80;76.10;;;;;;5015392;28;20208;-66
2023/05/23 06:05:15;;;;;;;13.88;12.43;;;19.80;75.90;;;;;;5015276;28;20314;-65
2023/05/23 06:07:47;;;;;;;13.88;12.20;;;19.80;75.90;;;;;;5031078;28;20212;-66
2023/05/23 06:10:13;;;;;;;15.30;13.70;;;19.80;75.90;;;;;;5014939;28;20302;-67
2023/05/23 06:12:42;;;;;;;14.25;12.77;;;19.80;76.00;;;;;;4998809;28;20184;-66
2023/05/23 06:15:09;;;;;;;13.32;11.90;;;19.80;76.00;;;;;;5015053;28;20184;-65
2023/05/23 06:17:37;;;;;;;14.18;12.68;;;19.80;76.00;;;;;;5005947;28;20214;-66
2023/05/23 06:20:03;;;;;;;13.85;12.52;;;19.80;76.00;;;;;;4995098;28;20275;-66
2023/05/23 06:22:30;;;;;;;14.13;12.32;;;19.80;76.00;;;;;;5014260;28;20249;-66
2023/05/23 06:24:56;;;;;;;13.75;12.35;;;19.80;76.00;;;;;;4994905;28;20189;-66
2023/05/23 06:27:23;;;;;;;15.32;12.73;;;19.80;76.20;;;;;;5012940;28;20208;-67
2023/05/23 06:29:49;;;;;;;13.13;11.93;;;19.80;76.10;;;;;;5030474;28;20200;-66
2023/05/23 06:32:15;;;;;;;13.70;12.23;;;19.80;76.20;;;;;;4995463;28;20656;-66
2023/05/23 06:34:40;;;;;;;14.60;13.10;;;19.80;76.10;;;;;;4998217;28;21027;-66
2023/05/23 06:37:06;;;;;;;13.73;12.32;;;19.80;76.20;;;;;;5022243;28;20204;-65
2023/05/23 06:39:32;;;;;;;14.55;13.15;;;19.80;76.20;;;;;;5022742;28;20184;-66
2023/05/23 06:41:58;;;;;;;13.50;12.20;;;19.80;76.30;;;;;;4997870;28;20184;-67
2023/05/23 06:44:24;;;;;;;13.50;12.20;;;19.80;76.40;;;;;;5007692;28;20251;-66
2023/05/23 06:46:57;;;;;;;13.32;12.00;;;19.80;76.40;;;;;;5003484;28;20235;-65
2023/05/23 06:49:24;;;;;;;13.63;12.30;;;19.80;76.40;;;;;;5014163;28;20279;-66
2023/05/23 06:51:51;;;;;;;14.05;12.57;;;19.80;76.20;;;;;;4997862;28;20215;-66
2023/05/23 06:54:18;;;;;;;14.25;12.85;;;19.80;76.20;;;;;;5013971;28;20199;-66
2023/05/23 06:56:44;;;;;;;16.10;14.50;;;19.80;76.20;;;;;;4994190;28;20205;-65
2023/05/23 06:59:10;;;;;;;15.40;13.80;;;19.80;76.20;;;;;;4994390;28;20619;-67
2023/05/23 07:01:36;;;;;;;14.55;13.05;;;19.80;76.30;;;;;;5013718;28;20597;-66
2023/05/23 07:04:01;;;;;;;14.68;13.18;;;19.80;76.40;;;;;;5030335;28;20215;-66
2023/05/23 07:06:28;;;;;;;14.05;12.65;;;19.80;76.40;;;;;;4997327;28;20212;-66
2023/05/23 07:08:54;;;;;;;15.55;14.00;;;19.80;76.30;;;;;;4997557;28;20287;-66
2023/05/23 07:11:21;;;;;;;14.55;13.05;;;19.80;76.30;;;;;;4995927;28;20224;-66
2023/05/23 07:13:52;;;;;;;14.25;12.75;;;19.80;76.40;;;;;;5007904;28;20195;-66
2023/05/23 07:16:34;;;;;;;13.73;12.35;;;19.80;76.30;;;;;;5021522;28;20258;-66
2023/05/23 07:19:04;;;;;;;13.02;11.75;;;19.80;76.50;;;;;;5013407;28;20215;-66
2023/05/23 07:21:30;;;;;;;14.35;12.85;;;19.80;76.50;;;;;;4997043;28;20184;-65
2023/05/23 07:23:57;;;;;;;13.57;12.25;;;19.80;76.50;;;;;;4993905;28;20192;-66
2023/05/23 07:26:22;;;;;;;14.15;12.65;;;19.80;76.60;;;;;;5011383;28;20280;-66
2023/05/23 07:28:53;;;;;;;13.27;11.95;;;19.80;76.60;;;;;;4997031;28;20188;-66
2023/05/23 07:31:19;;;;;;;13.57;12.18;;;19.80;76.70;;;;;;5012976;28;20227;-66
2023/05/23 07:33:45;;;;;;;13.07;11.77;;;19.80;76.30;;;;;;4993492;28;20193;-66
2023/05/23 07:36:16;;;;;;;13.77;12.43;;;19.80;76.40;;;;;;5010407;28;20207;-66
2023/05/23 07:38:43;;;;;;;13.88;12.27;;;19.80;76.50;;;;;;5013258;28;20188;-65
2023/05/23 07:41:08;;;;;;;13.60;12.20;;;19.80;76.50;;;;;;5013235;28;20218;-66
2023/05/23 07:43:34;;;;;;;14.70;13.25;;;19.80;76.40;;;;;;5020849;28;20184;-65
2023/05/23 07:46:00;;;;;;;14.30;12.52;;;19.80;76.50;;;;;;5003433;28;20284;-65
2023/05/23 07:48:26;;;;;;;13.45;12.15;;;19.80;76.50;;;;;;4998122;28;20188;-66
2023/05/23 07:50:54;;;;;;;13.70;12.40;;;19.80;76.40;;;;;;4996533;28;20234;-66
2023/05/23 07:53:23;;;;;;;14.48;12.98;;;19.80;76.50;;;;;;5013014;28;20342;-66
2023/05/23 07:55:49;;;;;;;12.88;11.68;;;19.80;76.60;;;;;;5029240;28;20248;-66
2023/05/23 07:58:16;;;;;;;14.07;12.68;;;19.80;76.60;;;;;;5013112;28;20189;-66
2023/05/23 08:00:43;;;;;;;14.00;12.65;;;19.80;76.50;;;;;;4996447;28;20187;-66
2023/05/23 08:03:21;;;;;;;14.02;11.98;;;19.80;76.70;;;;;;4998115;28;20196;-66
2023/05/23 08:05:59;;;;;;;12.45;11.25;;;19.80;76.60;;;;;;5014218;28;20270;-66
2023/05/23 08:08:24;;;;;;;12.65;11.35;;;19.80;76.60;;;;;;5028872;28;20200;-66
2023/05/23 08:10:50;;;;;;;12.65;11.45;;;19.80;76.60;;;;;;4996328;28;20218;-66
2023/05/23 08:13:22;;;;;;;12.02;10.93;;;19.80;76.60;;;;;;5012430;28;20222;-66
2023/05/23 08:16:08;;;;;;;13.35;12.05;;;19.80;76.60;;;;;;5020592;28;20211;-66
2023/05/23 08:18:35;;;;;;;13.98;12.25;;;19.80;76.60;;;;;;5011750;28;20196;-66
2023/05/23 08:21:02;;;;;;;12.82;11.63;;;19.80;76.60;;;;;;4992830;28;20193;-66
2023/05/23 08:23:28;;;;;;;13.30;11.98;;;19.80;76.50;;;;;;5012242;28;20188;-66
2023/05/23 08:25:56;;;;;;;13.32;11.98;;;19.80;76.40;;;;;;4995996;28;20589;-66
2023/05/23 08:28:22;;;;;;;13.57;12.27;;;19.80;76.40;;;;;;5020309;28;20193;-66
2023/05/23 08:30:53;;;;;;;13.02;11.82;;;19.80;76.40;;;;;;4992652;28;20247;-66
2023/05/23 08:33:18;;;;;;;12.95;11.60;;;19.80;76.60;;;;;;5025737;28;20188;-66
2023/05/23 08:35:46;;;;;;;12.82;11.52;;;19.80;76.60;;;;;;4996395;28;20212;-66
2023/05/23 08:38:14;;;;;;;12.80;11.50;;;19.80;76.60;;;;;;4992215;28;20185;-66
2023/05/23 08:41:00;;;;;;;12.38;11.18;;;19.80;76.40;;;;;;4992178;28;20549;-66
2023/05/23 08:43:28;;;;;;;12.43;11.23;;;19.80;76.60;;;;;;5006239;28;20200;-66
2023/05/23 08:45:54;;;;;;;11.70;10.60;;;19.80;76.60;;;;;;5002156;28;20722;-66
2023/05/23 08:48:21;;;;;;;11.45;10.40;;;19.80;76.50;;;;;;5025523;28;20212;-66
2023/05/23 08:50:51;;;;;;;11.68;10.65;;;19.80;76.40;;;;;;5012160;28;20222;-66
2023/05/23 08:53:25;;;;;;;11.43;10.30;;;19.80;76.30;;;;;;5011786;28;20180;-66
2023/05/23 08:56:02;;;;;;;13.23;12.02;;;19.80;76.40;;;;;;4992273;28;20208;-65
2023/05/23 08:58:35;;;;;;;12.13;11.02;;;19.80;76.30;;;;;;5008609;28;20180;-66
2023/05/23 09:01:01;;;;;;;11.18;10.18;;;19.80;76.40;;;;;;4995582;28;20283;-65
2023/05/23 09:03:28;;;;;;;12.10;10.95;;;19.80;76.50;;;;;;4995315;28;20207;-66
2023/05/23 09:06:09;;;;;;;10.40;9.50;;;19.80;76.30;;;;;;5028074;28;20219;-66
2023/05/23 09:08:37;;;;;;;11.25;10.15;;;19.80;76.20;;;;;;5027616;28;20188;-66
2023/05/23 09:11:04;;;;;;;11.50;10.40;;;19.80;76.30;;;;;;4995178;28;20214;-66
2023/05/23 09:13:33;;;;;;;11.75;10.65;;;19.80;76.40;;;;;;4995858;28;20180;-66
2023/05/23 09:16:08;;;;;;;11.32;10.23;;;19.80;76.40;;;;;;4995260;28;20287;-66
2023/05/23 09:18:42;;;;;;;11.68;10.57;;;19.80;76.40;;;;;;4995972;28;20262;-66
2023/05/23 09:21:12;;;;;;;10.85;9.85;;;19.80;76.70;;;;;;5011955;28;20211;-66
2023/05/23 09:23:44;;;;;;;11.95;10.75;;;19.80;76.30;;;;;;4995919;28;20667;-64
2023/05/23 09:26:14;;;;;;;10.55;9.65;;;19.90;76.30;;;;;;5006288;28;20209;-65
2023/05/23 09:28:43;;;;;;;10.63;9.55;;;19.90;76.30;;;;;;5010108;28;20187;-66
2023/05/23 09:31:09;;;;;;;10.40;9.48;;;19.80;76.20;;;;;;5026445;28;20266;-66
2023/05/23 09:33:49;;;;;;;10.40;9.48;;;19.80;76.20;;;;;;5011091;28;20215;-65
2023/05/23 09:36:17;;;;;;;11.25;10.25;;;19.80;76.30;;;;;;5019535;28;20200;-65
2023/05/23 09:38:47;;;;;;;10.05;9.15;;;19.80;76.30;;;;;;4994668;28;20187;-65
2023/05/23 09:41:14;;;;;;;11.32;10.32;;;19.80;76.30;;;;;;4991919;28;20196;-66
2023/05/23 09:43:49;;;;;;;11.15;10.05;;;19.80;76.30;;;;;;4994342;28;20195;-65
2023/05/23 09:46:15;;;;;;;10.27;9.32;;;19.90;76.60;;;;;;4999615;28;20335;-66
2023/05/23 09:48:47;;;;;;;10.52;9.52;;;19.80;76.70;;;;;;5010936;28;20286;-66
2023/05/23 09:51:13;;;;;;;11.25;10.25;;;19.80;76.50;;;;;;5011473;28;20243;-65
2023/05/23 09:53:39;;;;;;;10.50;9.60;;;19.80;76.60;;;;;;5019547;28;20188;-65
2023/05/23 09:56:10;;;;;;;10.75;9.75;;;19.80;76.60;;;;;;5021369;28;20262;-65
2023/05/23 09:58:39;;;;;;;10.38;9.48;;;19.80;77.00;;;;;;4993648;28;20569;-66
2023/05/23 10:01:09;;;;;;;10.88;9.88;;;19.80;76.60;;;;;;5010953;28;20233;-66
2023/05/23 10:03:53;;;;;;;11.18;10.18;;;19.80;76.60;;;;;;4993864;28;20181;-66
2023/05/23 10:06:47;;;;;;;11.07;10.07;;;19.80;76.60;;;;;;5007700;28;20224;-66
2023/05/23 10:09:17;;;;;;;12.93;10.00;;;19.80;76.50;;;;;;4989791;28;20188;-66
2023/05/23 10:11:58;;;;;;;10.95;9.90;;;19.80;76.70;;;;;;4990768;28;20216;-66
2023/05/23 10:14:29;;;;;;;11.00;10.00;;;19.90;76.70;;;;;;5010696;28;20192;-66
2023/05/23 10:17:14;;;;;;;11.32;10.32;;;19.80;76.60;;;;;;5007006;28;20207;-66
2023/05/23 10:19:49;;;;;;;12.15;10.85;;;19.80;76.60;;;;;;5000425;28;20288;-66
2023/05/23 10:22:16;;;;;;;10.90;9.90;;;19.80;77.20;;;;;;4987244;28;20193;-66
2023/05/23 10:24:45;;;;;;;12.02;10.93;;;19.80;76.70;;;;;;4996781;28;20188;-65
2023/05/23 10:27:11;;;;;;;11.50;10.43;;;19.80;76.70;;;;;;4994505;28;20231;-66
2023/05/23 10:29:37;;;;;;;11.82;10.70;;;19.80;76.70;;;;;;4991274;28;20196;-66
2023/05/23 10:32:06;;;;;;;11.50;10.45;;;19.80;76.70;;;;;;4994744;28;20191;-66
2023/05/23 10:34:44;;;;;;;11.45;10.35;;;19.80;76.60;;;;;;4993364;28;20698;-66
2023/05/23 10:37:23;;;;;;;11.27;10.23;;;19.80;76.60;;;;;;4981402;28;20354;-66
2023/05/23 10:40:30;;;;;;;10.90;9.90;;;19.80;76.70;;;;;;5010785;28;20184;-67
2023/05/23 10:43:24;;;;;;;10.98;9.98;;;19.80;76.70;;;;;;4998070;28;20667;-66
2023/05/23 10:45:50;;;;;;;11.32;10.23;;;19.80;76.60;;;;;;4993208;28;20214;-66
2023/05/23 10:48:43;;;;;;;11.02;9.93;;;19.80;76.80;;;;;;5017626;28;20199;-66
2023/05/23 10:51:13;;;;;;;11.43;10.25;;;19.90;76.70;;;;;;5012322;28;20231;-66
2023/05/23 10:53:53;;;;;;;10.75;9.77;;;19.80;76.60;;;;;;5004047;28;20679;-66
2023/05/23 10:56:22;;;;;;;11.00;9.93;;;19.80;76.70;;;;;;4994096;28;20720;-66
2023/05/23 10:58:57;;;;;;;10.50;9.60;;;19.90;76.70;;;;;;4997861;28;20227;-66
2023/05/23 11:01:23;;;;;;;12.13;10.90;;;19.80;76.70;;;;;;5014035;28;20207;-66
2023/05/23 11:03:52;;;;;;;11.05;10.13;;;19.90;76.80;;;;;;5022619;28;20242;-65
2023/05/23 11:06:43;;;;;;;11.38;10.30;;;19.90;76.70;;;;;;5014173;28;20697;-66
2023/05/23 11:09:20;;;;;;;11.65;10.65;;;19.90;76.80;;;;;;4994892;28;20324;-66
2023/05/23 11:11:58;;;;;;;11.30;10.20;;;19.90;76.80;;;;;;4994377;28;20217;-66
2023/05/23 11:14:36;;;;;;;11.23;10.23;;;19.90;76.70;;;;;;5010400;28;20694;-66
2023/05/23 11:17:11;;;;;;;11.30;10.20;;;19.90;76.70;;;;;;5005286;28;20219;-64
2023/05/23 11:19:38;;;;;;;11.57;10.43;;;19.90;76.70;;;;;;4997330;28;20192;-65
2023/05/23 11:22:08;;;;;;;11.13;10.18;;;19.90;76.60;;;;;;5000264;28;20221;-66
2023/05/23 11:24:52;;;;;;;11.43;10.43;;;19.90;76.80;;;;;;4994036;28;20196;-65
2023/05/23 11:27:33;;;;;;;11.13;10.13;;;19.90;76.70;;;;;;4984910;28;20259;-66
2023/05/23 11:30:17;;;;;;;10.50;9.60;;;19.90;76.70;;;;;;5030059;28;20223;-66
2023/05/23 11:32:54;;;;;;;11.25;10.25;;;19.90;76.70;;;;;;4993860;28;20196;-65
2023/05/23 11:35:21;;;;;;;11.55;10.45;;;19.90;76.70;;;;;;4977683;28;20181;-65
2023/05/23 11:37:47;;;;;;;11.20;10.18;;;19.90;76.70;;;;;;4996129;28;20318;-66
2023/05/23 11:40:34;;;;;;;11.57;10.55;;;19.90;76.70;;;;;;5029708;28;20192;-66
2023/05/23 11:43:04;;;;;;;11.63;10.52;;;19.90;76.70;;;;;;5013626;28;20187;-66
2023/05/23 11:45:31;;;;;;;11.80;10.70;;;19.90;76.80;;;;;;5010167;28;20185;-66
2023/05/23 11:47:58;;;;;;;11.50;10.40;;;20.00;76.70;;;;;;4996601;28;20180;-66
2023/05/23 11:50:24;;;;;;;11.38;10.27;;;19.90;76.40;;;;;;4997056;28;20592;-66
2023/05/23 11:52:50;;;;;;;11.45;10.35;;;19.90;76.40;;;;;;4996652;28;20184;-66
2023/05/23 11:55:19;;;;;;;12.48;11.25;;;19.90;76.40;;;;;;4996204;28;20257;-67
2023/05/23 11:57:45;;;;;;;11.93;10.88;;;19.90;76.50;;;;;;5010462;28;20243;-66
2023/05/23 12:00:12;;;;;;;12.00;10.80;;;19.90;76.50;;;;;;4990910;28;20224;-66
2023/05/23 12:02:42;;;;;;;12.18;11.05;;;19.90;76.70;;;;;;4996700;28;20290;-66
2023/05/23 12:05:13;;;;;;;12.38;11.18;;;19.90;76.50;;;;;;5015008;28;20184;-66
2023/05/23 12:07:47;;;;;;;11.18;10.25;;;19.90;76.50;;;;;;4992954;28;20221;-66
2023/05/23 12:10:20;;;;;;;11.80;10.70;;;19.90;76.60;;;;;;5024084;28;20302;-66
2023/05/23 12:12:46;;;;;;;12.18;11.13;;;19.90;76.50;;;;;;5012569;28;20187;-66
2023/05/23 12:15:12;;;;;;;12.10;10.98;;;19.90;76.40;;;;;;5018642;28;20187;-66
2023/05/23 12:17:46;;;;;;;11.52;10.38;;;20.00;76.60;;;;;;4997742;28;20637;-66
2023/05/23 12:20:13;;;;;;;11.65;10.55;;;20.00;76.60;;;;;;5028965;28;20200;-66
2023/05/23 12:22:38;;;;;;;12.07;10.98;;;20.00;76.50;;;;;;5012739;28;20274;-66
2023/05/23 12:25:10;;;;;;;12.40;11.30;;;20.00;76.60;;;;;;5020916;28;20294;-66
2023/05/23 12:27:37;;;;;;;11.25;10.30;;;20.00;76.80;;;;;;4996257;28;20311;-66
2023/05/23 12:30:13;;;;;;;10.93;9.82;;;20.00;76.60;;;;;;4992649;28;20213;-66
2023/05/23 12:32:41;;;;;;;11.65;10.63;;;20.00;76.60;;;;;;4985972;28;20195;-64
2023/05/23 12:35:12;;;;;;;11.43;10.43;;;20.00;76.90;;;;;;4996409;28;20168;-66
2023/05/23 12:37:44;;;;;;;11.38;10.48;;;20.00;76.80;;;;;;4995967;28;20215;-66
2023/05/23 12:40:15;;;;;;;11.57;10.48;;;20.00;76.70;;;;;;5023129;28;20219;-66
2023/05/23 12:42:55;;;;;;;11.73;10.68;;;20.00;76.60;;;;;;5008977;28;20185;-65
2023/05/23 12:45:33;;;;;;;11.20;10.00;;;20.00;77.00;;;;;;5010734;28;20240;-66